PWSweather.com
Personal Weather Stations
Station Observations
KILMORRI1
Goose Lake, Morris, IL 60450

Goose LakeMorris, IL 60450

Lat: 41.34, Lon: -88.3

Elevation: 523

Station Type:

www.gooselakeweather.com

High Low Average
Temperature 33.9°F1.1°C 12.3°F-10.9°C 27.3°F-2.6°C
Dew Point 26.3°F-3.2°C 8.9°F-12.8°C 21.7°F-5.7°C
Winds 9.2 mph 14.8 kmh Calm Calm 5.0 mph SE8.0 kmh SE
Wind Gusts 15.0 mph24.1 kmh -- 7.0 mph11.3 kmh
Humidity 89% 62% 80%
Pressure 30.43 in1030.5 mb 30.30 in1026.1 mb -
Precipitation 0.06 in1.5 mm - -
Hour Temp Dew Point Humidity Winds Wind Gusts Pressure Precip Precip Rate Daily Precip Total
12:00 AM 29.2°F-1.6°C 25.8°F-3.4°C 87% 12.7 mph ENE20.4 kmh ENE 16.1 mph25.9 kmh 30.30 in1026.1 mb - 0.00 in0.0 mm 0.00 in0.0 mm
12:10 AM 29.2°F-1.6°C 25.9°F-3.4°C 87% 11.5 mph ENE18.5 kmh ENE 15.0 mph24.1 kmh 30.30 in1026.1 mb - 0.00 in0.0 mm 0.00 in0.0 mm
12:20 AM 29.3°F-1.5°C 25.6°F-3.6°C 86% 9.2 mph ENE14.8 kmh ENE 11.5 mph18.5 kmh 30.30 in1026.1 mb - 0.00 in0.0 mm 0.00 in0.0 mm
12:30 AM 29.3°F-1.5°C 25.6°F-3.6°C 86% 8.1 mph ENE13.0 kmh ENE 11.5 mph18.5 kmh 30.30 in1026.1 mb - 0.00 in0.0 mm 0.00 in0.0 mm
12:40 AM 29.4°F-1.4°C 25.7°F-3.5°C 86% 8.1 mph ENE13.0 kmh ENE 11.5 mph18.5 kmh 30.30 in1026.1 mb - 0.00 in0.0 mm 0.00 in0.0 mm
12:50 AM 29.3°F-1.5°C 25.9°F-3.4°C 87% 8.1 mph ENE13.0 kmh ENE 11.5 mph18.5 kmh 30.30 in1026.1 mb - 0.00 in0.0 mm 0.00 in0.0 mm
01:00 AM 29.4°F-1.4°C 26.0°F-3.3°C 87% 8.1 mph ENE13.0 kmh ENE 10.4 mph16.7 kmh 30.30 in1026.1 mb - 0.00 in0.0 mm 0.00 in0.0 mm
01:10 AM 29.4°F-1.4°C 26.0°F-3.3°C 87% 8.1 mph NE13.0 kmh NE 10.4 mph16.7 kmh 30.30 in1026.1 mb - 0.00 in0.0 mm 0.00 in0.0 mm
01:20 AM 29.4°F-1.4°C 26.0°F-3.3°C 87% 8.1 mph ENE13.0 kmh ENE 10.4 mph16.7 kmh 30.30 in1026.1 mb - 0.00 in0.0 mm 0.00 in0.0 mm
01:30 AM 29.5°F-1.4°C 26.1°F-3.3°C 87% 6.9 mph ENE11.1 kmh ENE 8.1 mph13.0 kmh 30.30 in1026.1 mb - 0.00 in0.0 mm 0.00 in0.0 mm
01:40 AM 29.4°F-1.4°C 26.0°F-3.3°C 87% 9.2 mph ENE14.8 kmh ENE 11.5 mph18.5 kmh 30.30 in1026.1 mb - 0.00 in0.0 mm 0.00 in0.0 mm
01:50 AM 29.4°F-1.4°C 26.3°F-3.2°C 88% 8.1 mph ENE13.0 kmh ENE 10.4 mph16.7 kmh 30.30 in1026.1 mb - 0.00 in0.0 mm 0.00 in0.0 mm
02:00 AM 29.3°F-1.5°C 26.2°F-3.2°C 88% 9.2 mph ENE14.8 kmh ENE 11.5 mph18.5 kmh 30.30 in1026.1 mb - 0.00 in0.0 mm 0.00 in0.0 mm
02:10 AM 29.2°F-1.6°C 26.1°F-3.3°C 88% 6.9 mph ENE11.1 kmh ENE 8.1 mph13.0 kmh 30.30 in1026.1 mb - 0.00 in0.0 mm 0.00 in0.0 mm
02:20 AM 29.2°F-1.6°C 26.1°F-3.3°C 88% 9.2 mph ENE14.8 kmh ENE 11.5 mph18.5 kmh 30.31 in1026.4 mb - 0.00 in0.0 mm 0.00 in0.0 mm
02:30 AM 29.1°F-1.6°C 26.0°F-3.3°C 88% 5.8 mph ENE9.3 kmh ENE 9.2 mph14.8 kmh 30.31 in1026.4 mb - 0.00 in0.0 mm 0.00 in0.0 mm
02:40 AM 29.1°F-1.6°C 26.0°F-3.3°C 88% 5.8 mph ENE9.3 kmh ENE 10.4 mph16.7 kmh 30.31 in1026.4 mb - 0.00 in0.0 mm 0.00 in0.0 mm
02:50 AM 29.1°F-1.6°C 26.0°F-3.3°C 88% 6.9 mph ENE11.1 kmh ENE 11.5 mph18.5 kmh 30.32 in1026.8 mb - 0.00 in0.0 mm 0.00 in0.0 mm
03:00 AM 29.1°F-1.6°C 26.2°F-3.2°C 89% 8.1 mph NE13.0 kmh NE 11.5 mph18.5 kmh 30.32 in1026.8 mb - 0.00 in0.0 mm 0.00 in0.0 mm
03:10 AM 29.0°F-1.7°C 25.9°F-3.4°C 88% 8.1 mph NE13.0 kmh NE 12.7 mph20.4 kmh 30.32 in1026.8 mb - 0.00 in0.0 mm 0.00 in0.0 mm
03:20 AM 29.0°F-1.7°C 26.2°F-3.2°C 89% 8.1 mph ENE13.0 kmh ENE 10.4 mph16.7 kmh 30.32 in1026.8 mb - 0.00 in0.0 mm 0.00 in0.0 mm
03:30 AM 29.1°F-1.6°C 26.3°F-3.2°C 89% 8.1 mph NE13.0 kmh NE 11.5 mph18.5 kmh 30.32 in1026.8 mb - 0.00 in0.0 mm 0.00 in0.0 mm
03:40 AM 28.9°F-1.7°C 25.8°F-3.4°C 88% 6.9 mph ENE11.1 kmh ENE 9.2 mph14.8 kmh 30.32 in1026.8 mb - 0.00 in0.0 mm 0.00 in0.0 mm
03:50 AM 28.8°F-1.8°C 25.7°F-3.5°C 88% 8.1 mph ENE13.0 kmh ENE 11.5 mph18.5 kmh 30.32 in1026.8 mb - 0.00 in0.0 mm 0.00 in0.0 mm
04:00 AM 28.6°F-1.9°C 25.5°F-3.6°C 88% 8.1 mph ENE13.0 kmh ENE 10.4 mph16.7 kmh 30.32 in1026.8 mb - 0.00 in0.0 mm 0.00 in0.0 mm
04:10 AM 28.5°F-1.9°C 25.4°F-3.7°C 88% 6.9 mph ENE11.1 kmh ENE 9.2 mph14.8 kmh 30.32 in1026.8 mb - 0.00 in0.0 mm 0.00 in0.0 mm
04:20 AM 28.4°F-2.0°C 25.3°F-3.7°C 88% 8.1 mph ENE13.0 kmh ENE 10.4 mph16.7 kmh 30.32 in1026.8 mb - 0.00 in0.0 mm 0.00 in0.0 mm
04:30 AM 28.3°F-2.1°C 24.9°F-3.9°C 87% 8.1 mph NE13.0 kmh NE 11.5 mph18.5 kmh 30.32 in1026.8 mb - 0.00 in0.0 mm 0.00 in0.0 mm
04:40 AM 28.2°F-2.1°C 24.8°F-4.0°C 87% 9.2 mph NE14.8 kmh NE 12.7 mph20.4 kmh 30.32 in1026.8 mb - 0.00 in0.0 mm 0.00 in0.0 mm
04:50 AM 28.1°F-2.2°C 24.7°F-4.1°C 87% 6.9 mph NE11.1 kmh NE 9.2 mph14.8 kmh 30.32 in1026.8 mb - 0.00 in0.0 mm 0.00 in0.0 mm
05:00 AM 27.9°F-2.3°C 24.3°F-4.3°C 86% 6.9 mph ENE11.1 kmh ENE 11.5 mph18.5 kmh 30.32 in1026.8 mb - 0.00 in0.0 mm 0.00 in0.0 mm
05:10 AM 27.8°F-2.3°C 24.2°F-4.3°C 86% 5.8 mph NE9.3 kmh NE 8.1 mph13.0 kmh 30.31 in1026.4 mb - 0.00 in0.0 mm 0.00 in0.0 mm
05:20 AM 27.8°F-2.3°C 24.2°F-4.3°C 86% 6.9 mph NE11.1 kmh NE 11.5 mph18.5 kmh 30.32 in1026.8 mb - 0.00 in0.0 mm 0.00 in0.0 mm
05:30 AM 27.8°F-2.3°C 24.2°F-4.3°C 86% 6.9 mph NE11.1 kmh NE 10.4 mph16.7 kmh 30.32 in1026.8 mb - 0.00 in0.0 mm 0.00 in0.0 mm
05:40 AM 28.0°F-2.2°C 24.4°F-4.2°C 86% 9.2 mph NE14.8 kmh NE 12.7 mph20.4 kmh 30.32 in1026.8 mb - 0.00 in0.0 mm 0.00 in0.0 mm
05:50 AM 28.2°F-2.1°C 24.3°F-4.3°C 85% 9.2 mph ENE14.8 kmh ENE 12.7 mph20.4 kmh 30.32 in1026.8 mb - 0.00 in0.0 mm 0.00 in0.0 mm
06:00 AM 28.4°F-2.0°C 24.5°F-4.2°C 85% 6.9 mph ENE11.1 kmh ENE 9.2 mph14.8 kmh 30.33 in1027.1 mb - 0.00 in0.0 mm 0.00 in0.0 mm
06:10 AM 28.6°F-1.9°C 24.7°F-4.1°C 85% 8.1 mph NE13.0 kmh NE 9.2 mph14.8 kmh 30.33 in1027.1 mb - 0.00 in0.0 mm 0.00 in0.0 mm
06:20 AM 28.7°F-1.8°C 24.5°F-4.2°C 84% 6.9 mph NE11.1 kmh NE 11.5 mph18.5 kmh 30.33 in1027.1 mb - 0.00 in0.0 mm 0.00 in0.0 mm
06:30 AM 28.7°F-1.8°C 24.5°F-4.2°C 84% 8.1 mph ENE13.0 kmh ENE 12.7 mph20.4 kmh 30.33 in1027.1 mb - 0.00 in0.0 mm 0.00 in0.0 mm
06:40 AM 28.7°F-1.8°C 24.5°F-4.2°C 84% 6.9 mph ENE11.1 kmh ENE 13.8 mph22.2 kmh 30.33 in1027.1 mb - 0.00 in0.0 mm 0.00 in0.0 mm
06:50 AM 28.6°F-1.9°C 24.4°F-4.2°C 84% 4.6 mph NE7.4 kmh NE 6.9 mph11.1 kmh 30.34 in1027.4 mb - 0.00 in0.0 mm 0.00 in0.0 mm
07:00 AM 28.5°F-1.9°C 24.3°F-4.3°C 84% 6.9 mph NE11.1 kmh NE 10.4 mph16.7 kmh 30.34 in1027.4 mb - 0.00 in0.0 mm 0.00 in0.0 mm
07:10 AM 28.4°F-2.0°C 23.9°F-4.5°C 83% 5.8 mph NE9.3 kmh NE 8.1 mph13.0 kmh 30.34 in1027.4 mb - 0.00 in0.0 mm 0.00 in0.0 mm
07:20 AM 28.3°F-2.1°C 23.8°F-4.6°C 83% 5.8 mph NE9.3 kmh NE 11.5 mph18.5 kmh 30.34 in1027.4 mb - 0.00 in0.0 mm 0.00 in0.0 mm
07:30 AM 28.1°F-2.2°C 23.6°F-4.7°C 83% 5.8 mph NE9.3 kmh NE 11.5 mph18.5 kmh 30.34 in1027.4 mb - 0.00 in0.0 mm 0.00 in0.0 mm
07:40 AM 28.1°F-2.2°C 23.6°F-4.7°C 83% 4.6 mph NE7.4 kmh NE 8.1 mph13.0 kmh 30.35 in1027.8 mb - 0.00 in0.0 mm 0.00 in0.0 mm
07:50 AM 28.1°F-2.2°C 23.6°F-4.7°C 83% 4.6 mph NE7.4 kmh NE 6.9 mph11.1 kmh 30.35 in1027.8 mb - 0.00 in0.0 mm 0.00 in0.0 mm
08:00 AM 28.2°F-2.1°C 23.7°F-4.6°C 83% 3.5 mph NE5.6 kmh NE 6.9 mph11.1 kmh 30.35 in1027.8 mb - 0.00 in0.0 mm 0.00 in0.0 mm
08:10 AM 28.3°F-2.1°C 23.8°F-4.6°C 83% 4.6 mph NE7.4 kmh NE 9.2 mph14.8 kmh 30.35 in1027.8 mb - 0.00 in0.0 mm 0.00 in0.0 mm
08:20 AM 28.4°F-2.0°C 23.6°F-4.7°C 82% 4.6 mph NE7.4 kmh NE 13.8 mph22.2 kmh 30.35 in1027.8 mb - 0.00 in0.0 mm 0.00 in0.0 mm
08:30 AM 28.7°F-1.8°C 23.9°F-4.5°C 82% 4.6 mph NE7.4 kmh NE 8.1 mph13.0 kmh 30.36 in1028.1 mb - 0.00 in0.0 mm 0.00 in0.0 mm
08:40 AM 29.0°F-1.7°C 23.9°F-4.5°C 81% 3.5 mph NE5.6 kmh NE 6.9 mph11.1 kmh 30.36 in1028.1 mb - 0.00 in0.0 mm 0.00 in0.0 mm
08:50 AM 29.0°F-1.7°C 23.9°F-4.5°C 81% 4.6 mph ENE7.4 kmh ENE 6.9 mph11.1 kmh 30.36 in1028.1 mb - 0.00 in0.0 mm 0.00 in0.0 mm
09:00 AM 29.2°F-1.6°C 23.8°F-4.6°C 80% 3.5 mph NE5.6 kmh NE 5.8 mph9.3 kmh 30.36 in1028.1 mb - 0.00 in0.0 mm 0.00 in0.0 mm
09:10 AM 29.5°F-1.4°C 24.1°F-4.4°C 80% 3.5 mph NE5.6 kmh NE 8.1 mph13.0 kmh 30.36 in1028.1 mb - 0.00 in0.0 mm 0.00 in0.0 mm
09:20 AM 29.8°F-1.2°C 24.4°F-4.2°C 80% 4.6 mph NE7.4 kmh NE 9.2 mph14.8 kmh 30.37 in1028.4 mb - 0.00 in0.0 mm 0.00 in0.0 mm
09:30 AM 30.1°F-1.1°C 24.4°F-4.2°C 79% 5.8 mph NE9.3 kmh NE 11.5 mph18.5 kmh 30.37 in1028.4 mb - 0.00 in0.0 mm 0.00 in0.0 mm
09:40 AM 30.3°F-0.9°C 24.6°F-4.1°C 79% 5.8 mph NE9.3 kmh NE 10.4 mph16.7 kmh 30.37 in1028.4 mb - 0.00 in0.0 mm 0.00 in0.0 mm
09:50 AM 30.5°F-0.8°C 24.5°F-4.2°C 78% 5.8 mph NE9.3 kmh NE 8.1 mph13.0 kmh 30.38 in1028.8 mb - 0.00 in0.0 mm 0.00 in0.0 mm
10:00 AM 30.6°F-0.8°C 24.6°F-4.1°C 78% 6.9 mph NE11.1 kmh NE 9.2 mph14.8 kmh 30.38 in1028.8 mb - 0.00 in0.0 mm 0.00 in0.0 mm
10:10 AM 30.7°F-0.7°C 24.7°F-4.1°C 78% 6.9 mph NE11.1 kmh NE 11.5 mph18.5 kmh 30.38 in1028.8 mb - 0.00 in0.0 mm 0.00 in0.0 mm
10:20 AM 30.9°F-0.6°C 24.8°F-4.0°C 78% 6.9 mph NNE11.1 kmh NNE 13.8 mph22.2 kmh 30.38 in1028.8 mb - 0.00 in0.0 mm 0.00 in0.0 mm
10:30 AM 30.8°F-0.7°C 24.7°F-4.1°C 78% 6.9 mph ENE11.1 kmh ENE 11.5 mph18.5 kmh 30.39 in1029.1 mb - 0.00 in0.0 mm 0.00 in0.0 mm
10:40 AM 30.9°F-0.6°C 24.9°F-3.9°C 78% 6.9 mph NE11.1 kmh NE 9.2 mph14.8 kmh 30.39 in1029.1 mb - 0.00 in0.0 mm 0.00 in0.0 mm
10:50 AM 31.2°F-0.4°C 24.8°F-4.0°C 77% 4.6 mph NE7.4 kmh NE 8.1 mph13.0 kmh 30.39 in1029.1 mb - 0.00 in0.0 mm 0.00 in0.0 mm
11:00 AM 31.0°F-0.6°C 24.6°F-4.1°C 77% 8.1 mph NE13.0 kmh NE 10.4 mph16.7 kmh 30.40 in1029.5 mb - 0.00 in0.0 mm 0.00 in0.0 mm
11:10 AM 31.2°F-0.4°C 24.8°F-4.0°C 77% 6.9 mph NE11.1 kmh NE 11.5 mph18.5 kmh 30.40 in1029.5 mb - 0.00 in0.0 mm 0.00 in0.0 mm
11:20 AM 31.2°F-0.4°C 24.8°F-4.0°C 77% 9.2 mph ENE14.8 kmh ENE 11.5 mph18.5 kmh 30.40 in1029.5 mb - 0.00 in0.0 mm 0.00 in0.0 mm
11:30 AM 31.2°F-0.4°C 24.8°F-4.0°C 77% 6.9 mph ENE11.1 kmh ENE 11.5 mph18.5 kmh 30.40 in1029.5 mb - 0.00 in0.0 mm 0.00 in0.0 mm
11:40 AM 31.4°F-0.3°C 25.0°F-3.9°C 77% 6.9 mph ENE11.1 kmh ENE 9.2 mph14.8 kmh 30.40 in1029.5 mb - 0.00 in0.0 mm 0.00 in0.0 mm
11:50 AM 31.4°F-0.3°C 24.7°F-4.1°C 76% 6.9 mph NE11.1 kmh NE 8.1 mph13.0 kmh 30.40 in1029.5 mb - 0.00 in0.0 mm 0.00 in0.0 mm
12:00 PM 31.7°F-0.2°C 25.0°F-3.9°C 76% 8.1 mph NE13.0 kmh NE 12.7 mph20.4 kmh 30.40 in1029.5 mb - 0.00 in0.0 mm 0.00 in0.0 mm
12:10 PM 31.6°F-0.2°C 24.6°F-4.1°C 75% 8.1 mph ENE13.0 kmh ENE 10.4 mph16.7 kmh 30.39 in1029.1 mb - 0.00 in0.0 mm 0.00 in0.0 mm
12:20 PM 31.8°F-0.1°C 24.5°F-4.2°C 74% 8.1 mph NE13.0 kmh NE 9.2 mph14.8 kmh 30.39 in1029.1 mb - 0.00 in0.0 mm 0.00 in0.0 mm
12:30 PM 32.5°F0.3°C 24.8°F-4.0°C 73% 6.9 mph NE11.1 kmh NE 10.4 mph16.7 kmh 30.39 in1029.1 mb - 0.00 in0.0 mm 0.00 in0.0 mm
12:40 PM 32.3°F0.2°C 24.6°F-4.1°C 73% 6.9 mph NE11.1 kmh NE 11.5 mph18.5 kmh 30.38 in1028.8 mb - 0.01 in0.3 mm 0.01 in0.3 mm
12:50 PM 32.3°F0.2°C 24.6°F-4.1°C 73% 4.6 mph NE7.4 kmh NE 10.4 mph16.7 kmh 30.38 in1028.8 mb - 0.01 in0.3 mm 0.02 in0.5 mm
01:00 PM 32.1°F0.1°C 24.4°F-4.2°C 73% 4.6 mph NE7.4 kmh NE 10.4 mph16.7 kmh 30.37 in1028.4 mb - 0.00 in0.0 mm 0.02 in0.5 mm
01:10 PM 33.3°F0.7°C 24.9°F-3.9°C 71% 5.8 mph NNE9.3 kmh NNE 11.5 mph18.5 kmh 30.37 in1028.4 mb - 0.01 in0.3 mm 0.03 in0.8 mm
01:20 PM 32.3°F0.2°C 24.3°F-4.3°C 72% 6.9 mph NE11.1 kmh NE 8.1 mph13.0 kmh 30.37 in1028.4 mb - 0.00 in0.0 mm 0.03 in0.8 mm
01:30 PM 33.0°F0.6°C 24.3°F-4.3°C 70% 5.8 mph NE9.3 kmh NE 11.5 mph18.5 kmh 30.36 in1028.1 mb - 0.01 in0.3 mm 0.04 in1.0 mm
01:40 PM 33.1°F0.6°C 24.1°F-4.4°C 69% 6.9 mph NE11.1 kmh NE 15.0 mph24.1 kmh 30.36 in1028.1 mb - 0.01 in0.3 mm 0.05 in1.3 mm
01:50 PM 33.3°F0.7°C 24.2°F-4.3°C 69% 4.6 mph NE7.4 kmh NE 8.1 mph13.0 kmh 30.36 in1028.1 mb - 0.00 in0.0 mm 0.05 in1.3 mm
02:00 PM 33.4°F0.8°C 24.3°F-4.3°C 69% 6.9 mph NNE11.1 kmh NNE 13.8 mph22.2 kmh 30.36 in1028.1 mb - 0.01 in0.3 mm 0.06 in1.5 mm
02:10 PM 33.1°F0.6°C 23.7°F-4.6°C 68% 3.5 mph NE5.6 kmh NE 8.1 mph13.0 kmh 30.36 in1028.1 mb - 0.00 in0.0 mm 0.06 in1.5 mm
02:20 PM 33.0°F0.6°C 23.6°F-4.7°C 68% 3.5 mph NE5.6 kmh NE 8.1 mph13.0 kmh 30.36 in1028.1 mb - 0.00 in0.0 mm 0.06 in1.5 mm
02:30 PM 33.4°F0.8°C 23.6°F-4.7°C 67% 8.1 mph NE13.0 kmh NE 11.5 mph18.5 kmh 30.36 in1028.1 mb - 0.00 in0.0 mm 0.06 in1.5 mm
02:40 PM 33.2°F0.7°C 23.8°F-4.6°C 68% 6.9 mph NE11.1 kmh NE 8.1 mph13.0 kmh 30.36 in1028.1 mb - 0.00 in0.0 mm 0.06 in1.5 mm
02:50 PM 33.6°F0.9°C 23.8°F-4.6°C 67% 3.5 mph NE5.6 kmh NE 4.6 mph7.4 kmh 30.36 in1028.1 mb - 0.00 in0.0 mm 0.06 in1.5 mm
03:00 PM 33.4°F0.8°C 22.6°F-5.2°C 64% 5.8 mph NE9.3 kmh NE 8.1 mph13.0 kmh 30.36 in1028.1 mb - 0.00 in0.0 mm 0.06 in1.5 mm
03:10 PM 33.5°F0.8°C 22.6°F-5.2°C 64% 4.6 mph NE7.4 kmh NE 10.4 mph16.7 kmh 30.36 in1028.1 mb - 0.00 in0.0 mm 0.06 in1.5 mm
03:20 PM 33.8°F1.0°C 23.3°F-4.8°C 65% 5.8 mph NE9.3 kmh NE 8.1 mph13.0 kmh 30.36 in1028.1 mb - 0.00 in0.0 mm 0.06 in1.5 mm
03:30 PM 33.9°F1.1°C 22.6°F-5.2°C 63% 6.9 mph N11.1 kmh N 9.2 mph14.8 kmh 30.36 in1028.1 mb - 0.00 in0.0 mm 0.06 in1.5 mm
03:40 PM 33.7°F0.9°C 22.4°F-5.3°C 63% 5.8 mph NE9.3 kmh NE 9.2 mph14.8 kmh 30.36 in1028.1 mb - 0.00 in0.0 mm 0.06 in1.5 mm
03:50 PM 33.7°F0.9°C 22.4°F-5.3°C 63% 4.6 mph NNE7.4 kmh NNE 9.2 mph14.8 kmh 30.36 in1028.1 mb - 0.00 in0.0 mm 0.06 in1.5 mm
04:00 PM 33.5°F0.8°C 22.2°F-5.4°C 63% 5.8 mph NE9.3 kmh NE 10.4 mph16.7 kmh 30.36 in1028.1 mb - 0.00 in0.0 mm 0.06 in1.5 mm
04:10 PM 33.9°F1.1°C 22.2°F-5.4°C 62% 3.5 mph NE5.6 kmh NE 4.6 mph7.4 kmh 30.36 in1028.1 mb - 0.00 in0.0 mm 0.06 in1.5 mm
04:20 PM 33.6°F0.9°C 22.3°F-5.4°C 63% 3.5 mph NE5.6 kmh NE 3.5 mph5.6 kmh 30.37 in1028.4 mb - 0.00 in0.0 mm 0.06 in1.5 mm
04:30 PM 33.0°F0.6°C 22.2°F-5.4°C 64% 4.6 mph NNE7.4 kmh NNE 11.5 mph18.5 kmh 30.36 in1028.1 mb - 0.00 in0.0 mm 0.06 in1.5 mm
04:40 PM 32.7°F0.4°C 21.9°F-5.6°C 64% 3.5 mph NE5.6 kmh NE 4.6 mph7.4 kmh 30.36 in1028.1 mb - 0.00 in0.0 mm 0.06 in1.5 mm
04:50 PM 32.8°F0.4°C 22.0°F-5.6°C 64% 3.5 mph NE5.6 kmh NE 4.6 mph7.4 kmh 30.37 in1028.4 mb - 0.00 in0.0 mm 0.06 in1.5 mm
05:00 PM 32.3°F0.2°C 21.8°F-5.7°C 65% 2.3 mph NNE3.7 kmh NNE 3.5 mph5.6 kmh 30.37 in1028.4 mb - 0.00 in0.0 mm 0.06 in1.5 mm
05:10 PM 32.1°F0.1°C 21.7°F-5.7°C 65% 4.6 mph NE7.4 kmh NE 6.9 mph11.1 kmh 30.37 in1028.4 mb - 0.00 in0.0 mm 0.06 in1.5 mm
05:20 PM 31.5°F-0.3°C 21.4°F-5.9°C 66% 3.5 mph NE5.6 kmh NE 3.5 mph5.6 kmh 30.37 in1028.4 mb - 0.00 in0.0 mm 0.06 in1.5 mm
05:30 PM 30.9°F-0.6°C 21.3°F-5.9°C 67% 2.3 mph N3.7 kmh N 5.8 mph9.3 kmh 30.38 in1028.8 mb - 0.00 in0.0 mm 0.06 in1.5 mm
05:40 PM 30.4°F-0.9°C 21.4°F-5.9°C 69% 1.2 mph NNE1.9 kmh NNE 3.5 mph5.6 kmh 30.38 in1028.8 mb - 0.00 in0.0 mm 0.06 in1.5 mm
05:50 PM 29.7°F-1.3°C 21.1°F-6.1°C 70% 2.3 mph NNE3.7 kmh NNE 3.5 mph5.6 kmh 30.39 in1029.1 mb - 0.00 in0.0 mm 0.06 in1.5 mm
06:00 PM 29.5°F-1.4°C 20.9°F-6.2°C 70% 2.3 mph N3.7 kmh N 3.5 mph5.6 kmh 30.39 in1029.1 mb - 0.00 in0.0 mm 0.06 in1.5 mm
06:10 PM 28.6°F-1.9°C 20.4°F-6.4°C 71% 2.3 mph N3.7 kmh N 3.5 mph5.6 kmh 30.39 in1029.1 mb - 0.00 in0.0 mm 0.06 in1.5 mm
06:20 PM 27.5°F-2.5°C 20.0°F-6.7°C 73% 1.2 mph N1.9 kmh N 3.5 mph5.6 kmh 30.40 in1029.5 mb - 0.00 in0.0 mm 0.06 in1.5 mm
06:30 PM 26.9°F-2.8°C 19.7°F-6.8°C 74% 1.2 mph N1.9 kmh N 2.3 mph3.7 kmh 30.40 in1029.5 mb - 0.00 in0.0 mm 0.06 in1.5 mm
06:40 PM 26.1°F-3.3°C 19.3°F-7.1°C 75% 1.2 mph N1.9 kmh N 2.3 mph3.7 kmh 30.40 in1029.5 mb - 0.00 in0.0 mm 0.06 in1.5 mm
06:50 PM 25.4°F-3.7°C 18.9°F-7.3°C 76% 1.2 mph N1.9 kmh N 3.5 mph5.6 kmh 30.40 in1029.5 mb - 0.00 in0.0 mm 0.06 in1.5 mm
07:00 PM 24.9°F-3.9°C 18.7°F-7.4°C 77% Calm Calm 2.3 mph3.7 kmh 30.40 in1029.5 mb - 0.00 in0.0 mm 0.06 in1.5 mm
07:10 PM 24.5°F-4.2°C 18.6°F-7.4°C 78% 1.2 mph N1.9 kmh N 2.3 mph3.7 kmh 30.41 in1029.8 mb - 0.00 in0.0 mm 0.06 in1.5 mm
07:20 PM 24.2°F-4.3°C 18.4°F-7.6°C 78% 1.2 mph N1.9 kmh N 1.2 mph1.9 kmh 30.41 in1029.8 mb - 0.00 in0.0 mm 0.06 in1.5 mm
07:30 PM 23.5°F-4.7°C 18.2°F-7.7°C 80% Calm Calm 1.2 mph1.9 kmh 30.41 in1029.8 mb - 0.00 in0.0 mm 0.06 in1.5 mm
07:40 PM 23.3°F-4.8°C 18.0°F-7.8°C 80% 1.2 mph NNW1.9 kmh NNW 2.3 mph3.7 kmh 30.41 in1029.8 mb - 0.00 in0.0 mm 0.06 in1.5 mm
07:50 PM 22.8°F-5.1°C 17.6°F-8.0°C 80% Calm Calm 1.2 mph1.9 kmh 30.41 in1029.8 mb - 0.00 in0.0 mm 0.06 in1.5 mm
08:00 PM 22.6°F-5.2°C 17.9°F-7.8°C 82% 2.3 mph NNW3.7 kmh NNW 3.5 mph5.6 kmh 30.41 in1029.8 mb - 0.00 in0.0 mm 0.06 in1.5 mm
08:10 PM 23.1°F-4.9°C 18.5°F-7.5°C 82% 1.2 mph N1.9 kmh N 3.5 mph5.6 kmh 30.41 in1029.8 mb - 0.00 in0.0 mm 0.06 in1.5 mm
08:20 PM 22.1°F-5.5°C 17.2°F-8.2°C 81% 1.2 mph N1.9 kmh N 2.3 mph3.7 kmh 30.41 in1029.8 mb - 0.00 in0.0 mm 0.06 in1.5 mm
08:30 PM 20.9°F-6.2°C 16.5°F-8.6°C 83% 1.2 mph N1.9 kmh N 2.3 mph3.7 kmh 30.41 in1029.8 mb - 0.00 in0.0 mm 0.06 in1.5 mm
08:40 PM 20.0°F-6.7°C 15.9°F-8.9°C 84% 1.2 mph N1.9 kmh N 2.3 mph3.7 kmh 30.41 in1029.8 mb - 0.00 in0.0 mm 0.06 in1.5 mm
08:50 PM 19.9°F-6.7°C 16.1°F-8.8°C 85% 1.2 mph N1.9 kmh N 2.3 mph3.7 kmh 30.41 in1029.8 mb - 0.00 in0.0 mm 0.06 in1.5 mm
09:00 PM 20.0°F-6.7°C 16.5°F-8.6°C 86% 1.2 mph N1.9 kmh N 2.3 mph3.7 kmh 30.42 in1030.1 mb - 0.00 in0.0 mm 0.06 in1.5 mm
09:10 PM 20.1°F-6.6°C 16.6°F-8.6°C 86% 1.2 mph N1.9 kmh N 1.2 mph1.9 kmh 30.42 in1030.1 mb - 0.00 in0.0 mm 0.06 in1.5 mm
09:20 PM 20.0°F-6.7°C 16.5°F-8.6°C 86% 1.2 mph N1.9 kmh N 2.3 mph3.7 kmh 30.42 in1030.1 mb - 0.00 in0.0 mm 0.06 in1.5 mm
09:30 PM 20.0°F-6.7°C 16.5°F-8.6°C 86% 2.3 mph NNW3.7 kmh NNW 3.5 mph5.6 kmh 30.42 in1030.1 mb - 0.00 in0.0 mm 0.06 in1.5 mm
09:40 PM 19.8°F-6.8°C 16.3°F-8.7°C 86% 1.2 mph NW1.9 kmh NW 2.3 mph3.7 kmh 30.42 in1030.1 mb - 0.00 in0.0 mm 0.06 in1.5 mm
09:50 PM 19.5°F-6.9°C 16.0°F-8.9°C 86% 2.3 mph NW3.7 kmh NW 3.5 mph5.6 kmh 30.42 in1030.1 mb - 0.00 in0.0 mm 0.06 in1.5 mm
10:00 PM 19.4°F-7.0°C 15.9°F-8.9°C 86% 1.2 mph NW1.9 kmh NW 2.3 mph3.7 kmh 30.43 in1030.5 mb - 0.00 in0.0 mm 0.06 in1.5 mm
10:10 PM 19.3°F-7.1°C 16.0°F-8.9°C 87% 1.2 mph NW1.9 kmh NW 1.2 mph1.9 kmh 30.43 in1030.5 mb - 0.00 in0.0 mm 0.06 in1.5 mm
10:20 PM 18.4°F-7.6°C 15.1°F-9.4°C 87% Calm Calm 1.2 mph1.9 kmh 30.43 in1030.5 mb - 0.00 in0.0 mm 0.06 in1.5 mm
10:30 PM 17.6°F-8.0°C 14.4°F-9.8°C 87% Calm Calm 1.2 mph1.9 kmh 30.43 in1030.5 mb - 0.00 in0.0 mm 0.06 in1.5 mm
10:40 PM 16.5°F-8.6°C 13.3°F-10.4°C 87% Calm Calm 1.2 mph1.9 kmh 30.43 in1030.5 mb - 0.00 in0.0 mm 0.06 in1.5 mm
10:50 PM 15.5°F-9.2°C 12.3°F-10.9°C 87% Calm Calm -- 30.42 in1030.1 mb - 0.00 in0.0 mm 0.06 in1.5 mm
11:00 PM 15.4°F-9.2°C 12.5°F-10.8°C 88% 1.2 mph NW1.9 kmh NW 2.3 mph3.7 kmh 30.43 in1030.5 mb - 0.00 in0.0 mm 0.06 in1.5 mm
11:10 PM 15.7°F-9.1°C 12.8°F-10.7°C 88% 1.2 mph NW1.9 kmh NW 1.2 mph1.9 kmh 30.43 in1030.5 mb - 0.00 in0.0 mm 0.06 in1.5 mm
11:20 PM 15.0°F-9.4°C 12.0°F-11.1°C 88% 1.2 mph NW1.9 kmh NW 1.2 mph1.9 kmh 30.43 in1030.5 mb - 0.00 in0.0 mm 0.06 in1.5 mm
11:30 PM 15.3°F-9.3°C 12.4°F-10.9°C 88% 1.2 mph NW1.9 kmh NW 1.2 mph1.9 kmh 30.43 in1030.5 mb - 0.00 in0.0 mm 0.06 in1.5 mm
11:40 PM 15.0°F-9.4°C 12.1°F-11.1°C 88% Calm Calm 1.2 mph1.9 kmh 30.43 in1030.5 mb - 0.00 in0.0 mm 0.06 in1.5 mm
11:50 PM 13.4°F-10.3°C 10.3°F-12.1°C 87% Calm Calm 1.2 mph1.9 kmh 30.43 in1030.5 mb - 0.00 in0.0 mm 0.06 in1.5 mm